Aviation Digital Data Service (ADDS)

Output produced by TAFs form (0146 UTC 25 February 2018)
found at http://aviationweather.gov/adds/tafs/
 
KASE 242320Z 2500/2524 00000KT P6SM SCT060 
     FM250200 22005KT P6SM SCT045 BKN060 
     FM251000 21004KT P6SM VCSH BKN020 OVC040 
     FM251300 27004KT P6SM VCSH BKN015 OVC040 
     FM251500 32005KT P6SM BKN030 OVC035 
     FM251700 33005KT P6SM BKN035